»·PEaware :: N416JK 8W5-KYKM

N416JK :: 8W5-KYKM

FLIGHT INFORMATION

Flight Status: Arrived
Operator: Privately registered:
United States
More flights under this callsign
Pilot: John K. (4202)
Aircraft: PIPER PA-46-310/350P MALIBU MIRAGE
(PA46)
More flights by this aircraft type
Origin: 8W5 Apex Airpark
United States
Destination: KYKM Yakima Air Term/Mcallister
United States
More flights between these airports :: More routes between these airports
Route: +SEA V4 TITON
File this flight plan on PilotEdge
Remarks:
Altitude:
(Current/Filed)
11,000ft
Speed:
(Current/Filed)
180kts
Departed: 16-May-20 08:59 AM
Arrived: 16-May-20 09:43 AM
Distance/Time
Traveled:
111nm/0:43
Distance/Time
To Go:
Arrived

Flight Plot

Page will automatically refresh every two minutes.


Map Options




Map Legend


Flown Route
Filed Route
Departure Airport
Arrival Airport
Navaid (VOR, NDB)
Fix

Horizontal Profiles

Position Reports

Time Latitude Longitude Heading Altitude Ground
Speed
16-May-20 08:51 47.655896 -122.732829 284 500ft 0kts
16-May-20 08:52 47.655896 -122.732829 284 500ft 0kts
16-May-20 08:52 47.655896 -122.732829 284 500ft 0kts
16-May-20 08:54 47.655896 -122.732829 284 500ft 0kts
16-May-20 08:55 47.655897 -122.732832 284 500ft 0kts
16-May-20 08:55 47.657113 -122.732798 4 508ft 18kts
16-May-20 08:56 47.659923 -122.732286 352 516ft 6kts
16-May-20 08:58 47.659960 -122.732331 298 517ft 0kts
16-May-20 08:58 47.654787 -122.733527 188 535ft 89kts
16-May-20 08:59 47.633515 -122.717680 119 2148ft 101kts
16-May-20 09:00 47.617069 -122.678547 126 3551ft 132kts
16-May-20 09:01 47.594282 -122.628754 132 4810ft 156kts
16-May-20 09:02 47.567755 -122.575778 133 6036ft 163kts
16-May-20 09:03 47.541321 -122.522858 132 7225ft 163kts
16-May-20 09:04 47.514958 -122.470045 133 8434ft 157kts
16-May-20 09:05 47.489104 -122.418178 133 9631ft 158kts
16-May-20 09:06 47.463134 -122.366639 133 10690ft 165kts
16-May-20 09:07 47.436284 -122.313165 131 10968ft 194kts
16-May-20 09:08 47.408804 -122.252332 130 10962ft 196kts
16-May-20 09:09 47.378723 -122.185293 130 10990ft 195kts
16-May-20 09:10 47.353139 -122.128206 132 12255ft 150kts
16-May-20 09:11 47.330632 -122.078572 130 12972ft 165kts
16-May-20 09:12 47.303085 -122.016974 130 12965ft 191kts
16-May-20 09:13 47.273105 -121.950574 130 12962ft 198kts
16-May-20 09:14 47.242339 -121.883062 130 12962ft 199kts
16-May-20 09:15 47.211958 -121.816583 131 13034ft 194kts
16-May-20 09:16 47.181709 -121.750621 130 13043ft 195kts
16-May-20 09:17 47.151508 -121.684941 130 13070ft 198kts
16-May-20 09:18 47.120994 -121.618309 130 13081ft 201kts
16-May-20 09:19 47.089889 -121.550878 130 13080ft 202kts
16-May-20 09:20 47.058367 -121.482828 130 13080ft 202kts
16-May-20 09:21 47.027603 -121.416417 130 13078ft 195kts
16-May-20 09:22 46.997653 -121.351679 130 13079ft 189kts
16-May-20 09:23 46.968641 -121.289595 131 13076ft 182kts
16-May-20 09:24 46.939590 -121.227343 130 11723ft 186kts
16-May-20 09:25 46.913018 -121.170021 132 10992ft 145kts
16-May-20 09:26 46.892586 -121.126435 134 11015ft 128kts
16-May-20 09:27 46.870835 -121.080321 132 11013ft 143kts
16-May-20 09:28 46.848386 -121.031820 133 11009ft 143kts
16-May-20 09:29 46.826097 -120.984531 133 11009ft 139kts
16-May-20 09:30 46.803752 -120.937060 132 10086ft 143kts
16-May-20 09:31 46.782000 -120.890914 133 8484ft 131kts
16-May-20 09:32 46.762377 -120.849561 131 6864ft 116kts
16-May-20 09:33 46.745104 -120.813397 128 5473ft 85kts
16-May-20 09:34 46.729792 -120.800492 127 5832ft 80kts
16-May-20 09:35 46.714585 -120.749666 128 5817ft 182kts
16-May-20 09:36 46.677256 -120.693411 133 5282ft 183kts
16-May-20 09:37 46.656320 -120.651623 129 3914ft 111kts
16-May-20 09:38 46.638246 -120.614258 126 3090ft 107kts
16-May-20 09:39 46.620255 -120.581124 131 2507ft 107kts
16-May-20 09:40 46.598526 -120.550333 133 2090ft 104kts
16-May-20 09:41 46.577316 -120.531513 180 1263ft 78kts
16-May-20 09:42 46.566201 -120.542538 240 1065ft 2kts
16-May-20 09:43 46.566208 -120.544323 331 1067ft 0kts
16-May-20 09:44 46.566208 -120.544323 331 1067ft 0kts
16-May-20 09:45 46.569312 -120.537876 22 1059ft 19kts

Navigation Log

Ident Type
Flight plan parsing failed, navigation log unavailable